Cadmus, Michigan
Current Conditions -  °F | °C
As of 11:53 PM on Tuesday 21 Oct 2014 (Local Time) from KADG Reporting Station
Overcast Overcast  
Wind Chill: 38°   Ceiling: 2300
Heat Index: 44°   Visibility: 10mi
Dew Point: 36°   Wind: 12mph
Humidity: 73%   Direction: 10°N
Pressure: 30.23"   Gusts: NA
Location:  41.9076°N, 84.0644°W
Report Text: KADG 220353Z AUTO 01010KT 10SM OVC023 07/02 A3023 RMK AO2 SLP242 T00670022
Loading
Personal Weather Stations






























Interactive Weather Map
Tropical Storm Tracking
New forecast layout! Learn more

10-Day Weather Forecast

Advertisements
Track Severe Weather on mobile